createdAt,value
2022-12-01T00:00:15.701Z,990.9
2022-12-01T00:04:19.083Z,990.8
2022-12-01T00:06:20.962Z,991
2022-12-01T00:08:22.206Z,990.9
2022-12-01T00:10:23.711Z,991
2022-12-01T00:12:24.729Z,990.9
2022-12-01T00:14:26.703Z,990.9
2022-12-01T00:16:28.714Z,990.9
2022-12-01T00:20:31.765Z,990.9
2022-12-01T00:22:33.435Z,990.9
2022-12-01T00:24:35.301Z,990.9
2022-12-01T00:26:36.311Z,990.9
2022-12-01T00:28:37.715Z,990.9
2022-12-01T00:30:38.883Z,990.9
2022-12-01T00:32:40.185Z,990.8
2022-12-01T00:34:42.076Z,990.9
2022-12-01T00:36:43.269Z,990.8
2022-12-01T00:38:45.255Z,990.8
2022-12-01T00:40:47.046Z,990.8
2022-12-01T00:42:48.099Z,990.7
2022-12-01T00:44:49.493Z,990.8
2022-12-01T00:46:50.951Z,990.8
2022-12-01T00:48:52.579Z,990.8
2022-12-01T00:50:53.619Z,990.8
2022-12-01T00:52:54.702Z,990.8
2022-12-01T00:54:55.938Z,990.8
2022-12-01T00:56:57.950Z,990.8
2022-12-01T00:58:59.590Z,990.8
2022-12-01T01:03:03.398Z,990.9
2022-12-01T01:05:04.682Z,990.8
2022-12-01T01:07:05.859Z,990.8
2022-12-01T01:09:06.934Z,990.9
2022-12-01T01:11:08.579Z,990.8
2022-12-01T01:13:09.866Z,990.8
2022-12-01T01:15:11.271Z,990.9
2022-12-01T01:17:13.234Z,990.9
2022-12-01T01:19:14.595Z,990.9
2022-12-01T01:21:16.195Z,990.8
2022-12-01T01:23:17.389Z,991
2022-12-01T01:25:18.837Z,991
2022-12-01T01:29:21.722Z,990.9
2022-12-01T01:31:23.077Z,990.9
2022-12-01T01:33:24.107Z,991
2022-12-01T01:35:25.161Z,990.9
2022-12-01T01:39:27.972Z,990.9
2022-12-01T01:41:29.921Z,991
2022-12-01T01:43:31.910Z,990.9
2022-12-01T01:45:33.897Z,990.9
2022-12-01T01:47:35.501Z,990.9
2022-12-01T01:49:36.717Z,990.9
2022-12-01T01:51:38.344Z,991
2022-12-01T01:53:40.191Z,990.9
2022-12-01T01:55:41.443Z,991
2022-12-01T01:57:42.721Z,990.9
2022-12-01T01:59:43.735Z,990.9
2022-12-01T02:01:45.215Z,991
2022-12-01T02:03:46.790Z,990.9
2022-12-01T02:05:47.829Z,990.9
2022-12-01T02:06:31.744Z,990.9
2022-12-01T02:08:32.845Z,990.9
2022-12-01T02:10:33.907Z,990.8
2022-12-01T02:12:35.122Z,990.9
2022-12-01T02:14:36.612Z,990.9
2022-12-01T02:16:38.063Z,990.8
2022-12-01T02:18:39.943Z,990.8
2022-12-01T02:20:41.679Z,990.8
2022-12-01T02:22:42.688Z,990.8
2022-12-01T02:24:43.884Z,990.8
2022-12-01T02:26:45.081Z,990.8
2022-12-01T02:28:46.493Z,990.8
2022-12-01T02:30:48.509Z,990.7
2022-12-01T02:32:49.469Z,990.8
2022-12-01T02:34:51.023Z,990.8
2022-12-01T02:38:53.528Z,990.7
2022-12-01T02:40:55.284Z,990.6
2022-12-01T02:42:56.583Z,990.7
2022-12-01T02:44:57.785Z,990.7
2022-12-01T02:46:59.297Z,990.7
2022-12-01T02:49:00.921Z,990.7
2022-12-01T02:51:02.655Z,990.7
2022-12-01T02:53:04.371Z,990.6
2022-12-01T02:55:05.547Z,990.5
2022-12-01T02:57:07.230Z,990.6
2022-12-01T02:59:09.225Z,990.6
2022-12-01T03:01:10.425Z,990.7
2022-12-01T03:03:12.341Z,990.7
2022-12-01T03:05:13.854Z,990.6
2022-12-01T03:07:15.615Z,990.6
2022-12-01T03:09:16.669Z,990.6
2022-12-01T03:11:18.659Z,990.6
2022-12-01T03:13:19.893Z,990.6
2022-12-01T03:15:21.823Z,990.6
2022-12-01T03:17:23.100Z,990.5
2022-12-01T03:19:24.905Z,990.5
2022-12-01T03:21:26.700Z,990.5
2022-12-01T03:23:28.353Z,990.6
2022-12-01T03:25:29.372Z,990.6
2022-12-01T03:27:30.848Z,990.6
2022-12-01T03:29:32.606Z,990.5
2022-12-01T03:31:34.512Z,990.5
2022-12-01T03:33:36.067Z,990.5
2022-12-01T03:35:37.628Z,990.5
2022-12-01T03:37:38.720Z,990.5
2022-12-01T03:39:39.989Z,990.5
2022-12-01T03:41:41.908Z,990.5
2022-12-01T03:43:43.066Z,990.5
2022-12-01T03:47:46.328Z,990.6
2022-12-01T03:49:47.801Z,990.6
2022-12-01T03:51:49.426Z,990.6
2022-12-01T03:53:51.294Z,990.5
2022-12-01T03:57:53.566Z,990.6
2022-12-01T03:59:54.680Z,990.6
2022-12-01T04:01:56.007Z,990.5
2022-12-01T04:03:57.322Z,990.5
2022-12-01T04:05:58.584Z,990.6
2022-12-01T04:07:59.726Z,990.5
2022-12-01T04:10:01.204Z,990.6
2022-12-01T04:12:02.962Z,990.6
2022-12-01T04:14:04.244Z,990.6
2022-12-01T04:16:05.903Z,990.7
2022-12-01T04:18:07.562Z,990.6
2022-12-01T04:20:09.545Z,990.6
2022-12-01T04:22:10.686Z,990.7
2022-12-01T04:24:12.240Z,990.5
2022-12-01T04:26:15.837Z,990.6
2022-12-01T04:28:15.179Z,990.6
2022-12-01T04:30:16.389Z,990.4
2022-12-01T04:32:17.735Z,990.5
2022-12-01T04:34:19.050Z,990.5
2022-12-01T04:36:20.269Z,990.6
2022-12-01T04:38:23.051Z,990.5
2022-12-01T04:40:23.021Z,990.6
2022-12-01T04:42:24.601Z,990.5
2022-12-01T04:44:30.162Z,990.5
2022-12-01T04:46:28.354Z,990.5
2022-12-01T04:48:29.696Z,990.5
2022-12-01T04:50:31.402Z,990.5
2022-12-01T04:52:35.343Z,990.5
2022-12-01T04:54:34.826Z,990.5
2022-12-01T04:56:36.719Z,990.6
2022-12-01T04:58:38.128Z,990.5
2022-12-01T05:00:39.882Z,990.5
2022-12-01T05:02:41.365Z,990.6
2022-12-01T05:04:42.625Z,990.6
2022-12-01T05:06:43.863Z,990.7
2022-12-01T05:08:45.870Z,990.7
2022-12-01T05:10:47.527Z,990.7
2022-12-01T05:12:48.660Z,990.6
2022-12-01T05:14:50.525Z,990.7
2022-12-01T05:16:51.673Z,990.7
2022-12-01T05:18:53.566Z,990.7
2022-12-01T05:20:54.965Z,990.6
2022-12-01T05:23:05.123Z,990.7
2022-12-01T05:24:58.146Z,990.7
2022-12-01T05:26:59.955Z,990.7
2022-12-01T05:29:00.977Z,990.7
2022-12-01T05:31:02.413Z,990.8
2022-12-01T05:33:03.802Z,990.8
2022-12-01T05:35:04.901Z,990.7
2022-12-01T05:37:06.521Z,990.7
2022-12-01T05:39:08.411Z,990.7
2022-12-01T05:41:10.254Z,990.7
2022-12-01T05:43:11.571Z,990.8
2022-12-01T05:45:13.374Z,990.7
2022-12-01T05:47:14.717Z,990.8
2022-12-01T05:49:15.922Z,990.8
2022-12-01T05:51:17.768Z,990.8
2022-12-01T05:55:21.464Z,990.8
2022-12-01T05:57:23.200Z,990.8
2022-12-01T05:59:25.185Z,990.7
2022-12-01T06:01:26.411Z,990.8
2022-12-01T06:03:28.382Z,990.8
2022-12-01T06:05:29.798Z,990.7
2022-12-01T06:07:31.710Z,990.8
2022-12-01T06:09:33.146Z,990.8
2022-12-01T06:11:34.553Z,990.8
2022-12-01T06:13:36.267Z,990.8
2022-12-01T06:15:37.386Z,990.9
2022-12-01T06:17:40.346Z,990.9
2022-12-01T06:19:39.487Z,990.8
2022-12-01T06:21:41.242Z,990.7
2022-12-01T06:23:42.266Z,990.8
2022-12-01T06:25:43.963Z,990.8
2022-12-01T06:27:45.533Z,990.8
2022-12-01T06:29:46.772Z,990.8
2022-12-01T06:31:47.831Z,990.7
2022-12-01T06:33:49.010Z,990.8
2022-12-01T06:35:50.536Z,990.8
2022-12-01T06:37:52.333Z,990.8
2022-12-01T06:39:53.820Z,990.8
2022-12-01T06:43:57.398Z,990.8
2022-12-01T06:46:01.901Z,990.8
2022-12-01T06:48:00.748Z,990.7
2022-12-01T06:50:02.513Z,990.8
2022-12-01T06:52:03.894Z,990.9
2022-12-01T06:54:05.840Z,990.8
2022-12-01T06:56:06.739Z,990.9
2022-12-01T06:58:08.672Z,990.9
2022-12-01T07:00:09.635Z,990.9
2022-12-01T07:02:10.884Z,990.9
2022-12-01T07:04:12.536Z,990.9
2022-12-01T07:06:14.401Z,991
2022-12-01T07:08:15.486Z,991
2022-12-01T07:10:16.662Z,991
2022-12-01T07:12:18.226Z,991
2022-12-01T07:14:19.802Z,991
2022-12-01T07:16:21.163Z,991.1
2022-12-01T07:18:23.073Z,991.1
2022-12-01T07:20:25.097Z,991.1
2022-12-01T07:22:31.109Z,991
2022-12-01T07:24:27.494Z,991.1
2022-12-01T07:26:29.193Z,991.1
2022-12-01T07:28:30.489Z,991.1
2022-12-01T07:30:31.655Z,991.1
2022-12-01T07:32:33.309Z,991.1
2022-12-01T07:34:34.972Z,991.1
2022-12-01T07:36:36.640Z,991.1
2022-12-01T07:38:37.998Z,991.1
2022-12-01T07:42:40.632Z,991.2
2022-12-01T07:44:42.139Z,991.2
2022-12-01T07:46:44.168Z,991.1
2022-12-01T07:48:45.632Z,991.1
2022-12-01T07:50:46.640Z,991.1
2022-12-01T07:52:48.636Z,991.1
2022-12-01T07:54:50.211Z,991.2
2022-12-01T07:56:52.231Z,991.2
2022-12-01T07:58:54.485Z,991.1
2022-12-01T08:00:56.093Z,991.1
2022-12-01T08:02:57.567Z,991.2
2022-12-01T08:04:58.787Z,991.1
2022-12-01T08:07:00.061Z,991
2022-12-01T08:09:01.298Z,991.2
2022-12-01T08:11:02.419Z,991.2
2022-12-01T08:13:04.383Z,991.1
2022-12-01T08:15:05.921Z,991.2
2022-12-01T08:17:07.272Z,991.2
2022-12-01T08:19:08.395Z,991.2
2022-12-01T08:21:09.952Z,991.1
2022-12-01T08:23:11.523Z,991.2
2022-12-01T08:25:12.644Z,991.3
2022-12-01T08:27:14.086Z,991.3
2022-12-01T08:29:20.073Z,991.2
2022-12-01T08:31:17.724Z,991.3
2022-12-01T08:33:19.140Z,991.2
2022-12-01T08:35:20.487Z,991.3
2022-12-01T08:37:21.920Z,991.3
2022-12-01T08:39:23.204Z,991.3
2022-12-01T08:41:24.530Z,991.3
2022-12-01T08:43:49.937Z,991.4
2022-12-01T08:45:26.972Z,991.3
2022-12-01T08:47:28.146Z,991.4
2022-12-01T08:49:29.766Z,991.3
2022-12-01T08:51:31.473Z,991.3
2022-12-01T08:52:15.364Z,991.4
2022-12-01T08:54:16.672Z,991.3
2022-12-01T08:56:18.535Z,991.3
2022-12-01T08:58:19.551Z,991.3
2022-12-01T09:02:23.026Z,991.3
2022-12-01T09:04:24.503Z,991.3
2022-12-01T09:06:26.332Z,991.3
2022-12-01T09:08:27.490Z,991.4
2022-12-01T09:10:29.283Z,991.4
2022-12-01T09:12:31.181Z,991.4
2022-12-01T09:14:32.264Z,991.4
2022-12-01T09:16:33.586Z,991.4
2022-12-01T09:18:35.329Z,991.3
2022-12-01T09:20:36.325Z,991.3
2022-12-01T09:22:38.054Z,991.4
2022-12-01T09:24:39.460Z,991.3
2022-12-01T09:26:41.268Z,991.4
2022-12-01T09:28:42.538Z,991.3
2022-12-01T09:30:44.407Z,991.4
2022-12-01T09:32:46.041Z,991.3
2022-12-01T09:34:47.925Z,991.3
2022-12-01T09:36:49.370Z,991.3
2022-12-01T09:38:51.254Z,991.3
2022-12-01T09:40:52.770Z,991.3
2022-12-01T09:44:55.848Z,991.3
2022-12-01T09:46:57.380Z,991.2
2022-12-01T09:48:59.341Z,991.2
2022-12-01T09:51:00.494Z,991.2
2022-12-01T09:53:01.968Z,991.2
2022-12-01T09:55:03.857Z,991.2
2022-12-01T09:57:05.019Z,991.1
2022-12-01T09:59:06.947Z,991.2
2022-12-01T10:01:08.258Z,991.1
2022-12-01T10:03:09.526Z,991
2022-12-01T10:05:10.761Z,991.1
2022-12-01T10:07:12.366Z,991.1
2022-12-01T10:09:14.170Z,991
2022-12-01T10:11:15.660Z,991
2022-12-01T10:13:17.468Z,990.9
2022-12-01T10:15:18.729Z,990.9
2022-12-01T10:17:20.562Z,990.9
2022-12-01T10:19:22.218Z,990.8
2022-12-01T10:21:24.128Z,990.8
2022-12-01T10:23:25.147Z,990.8
2022-12-01T10:25:26.939Z,990.8
2022-12-01T10:27:28.546Z,990.7
2022-12-01T10:29:29.808Z,990.7
2022-12-01T10:31:30.903Z,990.8
2022-12-01T10:33:32.240Z,990.6
2022-12-01T10:35:33.098Z,990.6
2022-12-01T10:37:34.818Z,990.6
2022-12-01T10:39:36.061Z,990.5
2022-12-01T10:43:38.925Z,990.5
2022-12-01T10:45:40.152Z,990.5
2022-12-01T10:47:41.648Z,990.4
2022-12-01T10:49:43.541Z,990.5
2022-12-01T10:51:45.354Z,990.5
2022-12-01T10:53:46.699Z,990.5
2022-12-01T10:55:48.231Z,990.5
2022-12-01T10:57:49.183Z,990.5
2022-12-01T10:59:50.940Z,990.4
2022-12-01T11:01:52.692Z,990.5
2022-12-01T11:03:53.772Z,990.4
2022-12-01T11:05:54.666Z,990.4
2022-12-01T11:07:55.981Z,990.4
2022-12-01T11:09:57.753Z,990.4
2022-12-01T11:11:59.430Z,990.3
2022-12-01T11:14:00.885Z,990.2
2022-12-01T11:16:02.983Z,990.2
2022-12-01T11:18:03.790Z,990.3
2022-12-01T11:20:05.694Z,990.2
2022-12-01T11:22:07.256Z,990.2
2022-12-01T11:24:08.368Z,990.1
2022-12-01T11:26:09.723Z,990.2
2022-12-01T11:28:10.688Z,990.1
2022-12-01T11:30:12.526Z,990.2
2022-12-01T11:32:14.389Z,990.1
2022-12-01T11:34:15.282Z,990.1
2022-12-01T11:36:16.757Z,990.1
2022-12-01T11:38:30.364Z,990.1
2022-12-01T11:40:19.999Z,990
2022-12-01T11:42:21.322Z,990.1
2022-12-01T11:44:43.483Z,990.1
2022-12-01T11:46:24.514Z,990
2022-12-01T11:48:26.005Z,989.9
2022-12-01T11:52:28.831Z,990
2022-12-01T11:54:29.722Z,990
2022-12-01T11:56:31.808Z,990
2022-12-01T11:58:32.927Z,989.9
2022-12-01T12:02:35.769Z,990
2022-12-01T12:04:36.795Z,990
2022-12-01T12:08:39.342Z,989.9
2022-12-01T12:10:41.149Z,989.9
2022-12-01T12:12:42.710Z,989.9
2022-12-01T12:14:43.754Z,989.9
2022-12-01T12:16:45.049Z,989.9
2022-12-01T12:18:46.140Z,989.9
2022-12-01T12:20:47.313Z,989.8
2022-12-01T12:22:53.862Z,989.9
2022-12-01T12:24:50.509Z,989.8
2022-12-01T12:26:52.210Z,989.9
2022-12-01T12:28:53.751Z,989.9
2022-12-01T12:30:55.380Z,989.9
2022-12-01T12:32:56.562Z,989.8
2022-12-01T12:34:57.547Z,989.9
2022-12-01T12:36:59.204Z,989.8
2022-12-01T12:39:00.157Z,989.9
2022-12-01T12:41:01.458Z,989.8
2022-12-01T12:43:03.008Z,989.8
2022-12-01T12:45:04.106Z,989.7
2022-12-01T12:47:05.581Z,989.8
2022-12-01T12:49:20.636Z,989.7
2022-12-01T12:51:07.707Z,989.7
2022-12-01T12:53:09.325Z,989.7
2022-12-01T12:55:11.048Z,989.6
2022-12-01T12:57:12.557Z,989.7
2022-12-01T12:59:13.771Z,989.7
2022-12-01T13:01:15.595Z,989.7
2022-12-01T13:03:16.649Z,989.7
2022-12-01T13:07:20.406Z,989.6
2022-12-01T13:09:21.482Z,989.7
2022-12-01T13:11:23.044Z,989.7
2022-12-01T13:13:24.882Z,989.7
2022-12-01T13:15:26.794Z,989.7
2022-12-01T13:17:28.250Z,989.7
2022-12-01T13:19:29.270Z,989.6
2022-12-01T13:21:30.679Z,989.7
2022-12-01T13:23:32.387Z,989.7
2022-12-01T13:25:33.756Z,989.7
2022-12-01T13:27:35.027Z,989.7
2022-12-01T13:29:42.420Z,989.7
2022-12-01T13:31:38.429Z,989.7
2022-12-01T13:33:39.410Z,989.7
2022-12-01T13:35:40.539Z,989.7
2022-12-01T13:37:42.310Z,989.7
2022-12-01T13:39:43.754Z,989.7
2022-12-01T13:41:45.289Z,989.8
2022-12-01T13:43:47.143Z,989.7
2022-12-01T13:45:48.450Z,989.8
2022-12-01T13:49:51.424Z,989.7
2022-12-01T13:51:52.675Z,989.6
2022-12-01T13:53:54.271Z,989.7
2022-12-01T13:55:55.326Z,989.7
2022-12-01T13:57:56.922Z,989.7
2022-12-01T13:59:58.534Z,989.6
2022-12-01T14:02:00.015Z,989.6
2022-12-01T14:04:01.262Z,989.6
2022-12-01T14:06:02.379Z,989.6
2022-12-01T14:08:03.831Z,989.6
2022-12-01T14:10:04.729Z,989.6
2022-12-01T14:12:05.727Z,989.6
2022-12-01T14:16:08.224Z,989.6
2022-12-01T14:18:10.041Z,989.6
2022-12-01T14:20:11.098Z,989.6
2022-12-01T14:22:12.357Z,989.5
2022-12-01T14:26:15.355Z,989.7
2022-12-01T14:28:16.846Z,989.6
2022-12-01T14:32:19.552Z,989.6
2022-12-01T14:34:20.597Z,989.5
2022-12-01T14:36:21.955Z,989.5
2022-12-01T14:38:23.167Z,989.5
2022-12-01T14:40:25.005Z,989.5
2022-12-01T14:42:26.552Z,989.5
2022-12-01T14:44:28.295Z,989.5
2022-12-01T14:46:29.314Z,989.5
2022-12-01T14:48:31.207Z,989.5
2022-12-01T14:50:32.413Z,989.5
2022-12-01T14:52:33.911Z,989.5
2022-12-01T14:54:35.114Z,989.6
2022-12-01T14:56:36.430Z,989.5
2022-12-01T14:58:37.876Z,989.5
2022-12-01T15:00:39.104Z,989.6
2022-12-01T15:02:40.904Z,989.6
2022-12-01T15:04:42.615Z,989.5
2022-12-01T15:06:44.509Z,989.5
2022-12-01T15:08:53.641Z,989.5
2022-12-01T15:10:47.285Z,989.5
2022-12-01T15:12:48.411Z,989.5
2022-12-01T15:14:50.059Z,989.5
2022-12-01T15:16:51.260Z,989.5
2022-12-01T15:18:52.619Z,989.6
2022-12-01T15:20:54.483Z,989.5
2022-12-01T15:22:55.513Z,989.5
2022-12-01T15:24:57.172Z,989.5
2022-12-01T15:27:03.431Z,989.4
2022-12-01T15:31:01.806Z,989.4
2022-12-01T15:33:03.493Z,989.4
2022-12-01T15:35:05.078Z,989.4
2022-12-01T15:37:06.613Z,989.5
2022-12-01T15:37:50.491Z,989.4
2022-12-01T15:39:51.580Z,989.4
2022-12-01T15:41:52.637Z,989.5
2022-12-01T15:43:53.741Z,989.4
2022-12-01T15:45:55.144Z,989.5
2022-12-01T15:47:56.316Z,989.5
2022-12-01T15:49:57.853Z,989.5
2022-12-01T15:51:59.590Z,989.4
2022-12-01T15:54:01.139Z,989.5
2022-12-01T15:56:02.235Z,989.5
2022-12-01T15:58:03.570Z,989.5
2022-12-01T16:00:05.347Z,989.5
2022-12-01T16:02:07.114Z,989.6
2022-12-01T16:04:08.332Z,989.6
2022-12-01T16:06:09.660Z,989.5
2022-12-01T16:08:13.331Z,989.5
2022-12-01T16:10:20.672Z,989.6
2022-12-01T16:12:14.229Z,989.7
2022-12-01T16:14:15.436Z,989.6
2022-12-01T16:16:17.037Z,989.6
2022-12-01T16:18:18.079Z,989.5
2022-12-01T16:20:19.830Z,989.6
2022-12-01T16:22:21.756Z,989.5
2022-12-01T16:24:22.831Z,989.5
2022-12-01T16:26:24.094Z,989.6
2022-12-01T16:28:25.431Z,989.6
2022-12-01T16:30:26.635Z,989.6
2022-12-01T16:32:28.052Z,989.6
2022-12-01T16:34:45.096Z,989.7
2022-12-01T16:36:30.237Z,989.5
2022-12-01T16:38:31.937Z,989.6
2022-12-01T16:40:33.538Z,989.6
2022-12-01T16:44:36.355Z,989.6
2022-12-01T16:46:37.688Z,989.6
2022-12-01T16:50:40.739Z,989.6
2022-12-01T16:52:44.889Z,989.5
2022-12-01T16:54:44.066Z,989.5
2022-12-01T16:56:45.069Z,989.5
2022-12-01T16:58:47.044Z,989.5
2022-12-01T17:00:48.579Z,989.5
2022-12-01T17:02:50.066Z,989.5
2022-12-01T17:04:51.419Z,989.4
2022-12-01T17:06:52.410Z,989.6
2022-12-01T17:08:54.040Z,989.5
2022-12-01T17:10:55.453Z,989.4
2022-12-01T17:12:57.101Z,989.4
2022-12-01T17:14:58.367Z,989.5
2022-12-01T17:16:59.927Z,989.5
2022-12-01T17:19:01.630Z,989.5
2022-12-01T17:21:03.459Z,989.5
2022-12-01T17:23:05.121Z,989.6
2022-12-01T17:25:06.549Z,989.5
2022-12-01T17:27:08.169Z,989.5
2022-12-01T17:29:09.918Z,989.6
2022-12-01T17:31:11.287Z,989.6
2022-12-01T17:33:12.481Z,989.5
2022-12-01T17:35:13.747Z,989.6
2022-12-01T17:37:20.630Z,989.7
2022-12-01T17:39:16.994Z,989.6
2022-12-01T17:41:17.984Z,989.7
2022-12-01T17:43:19.816Z,989.7
2022-12-01T17:45:21.044Z,989.7
2022-12-01T17:49:23.649Z,989.6
2022-12-01T17:51:25.148Z,989.7
2022-12-01T17:53:26.692Z,989.6
2022-12-01T17:55:27.939Z,989.7
2022-12-01T17:57:29.103Z,989.7
2022-12-01T17:59:30.594Z,989.7
2022-12-01T18:01:32.062Z,989.7
2022-12-01T18:03:33.305Z,989.7
2022-12-01T18:05:34.742Z,989.7
2022-12-01T18:07:36.317Z,989.7
2022-12-01T18:09:38.151Z,989.7
2022-12-01T18:11:39.171Z,989.8
2022-12-01T18:13:41.058Z,989.7
2022-12-01T18:15:42.504Z,989.8
2022-12-01T18:17:43.549Z,989.8
2022-12-01T18:19:45.237Z,989.7
2022-12-01T18:21:46.532Z,989.7
2022-12-01T18:23:48.219Z,989.7
2022-12-01T18:25:49.250Z,989.7
2022-12-01T18:27:50.786Z,989.7
2022-12-01T18:29:52.324Z,989.7
2022-12-01T18:31:54.257Z,989.7
2022-12-01T18:33:55.664Z,989.7
2022-12-01T18:35:56.846Z,989.8
2022-12-01T18:37:58.197Z,989.7
2022-12-01T18:40:00.053Z,989.7
2022-12-01T18:42:01.844Z,989.7
2022-12-01T18:44:02.962Z,989.7
2022-12-01T18:46:04.842Z,989.6
2022-12-01T18:48:06.011Z,989.7
2022-12-01T18:50:07.300Z,989.6
2022-12-01T18:52:08.787Z,989.7
2022-12-01T18:54:09.961Z,989.7
2022-12-01T18:58:12.270Z,989.6
2022-12-01T19:00:14.271Z,989.6
2022-12-01T19:02:15.581Z,989.6
2022-12-01T19:04:16.831Z,989.6
2022-12-01T19:08:19.064Z,989.6
2022-12-01T19:10:20.109Z,989.6
2022-12-01T19:12:21.283Z,989.5
2022-12-01T19:14:22.522Z,989.5
2022-12-01T19:16:24.338Z,989.6
2022-12-01T19:18:25.575Z,989.6
2022-12-01T19:20:26.634Z,989.5
2022-12-01T19:22:27.687Z,989.4
2022-12-01T19:24:28.916Z,989.5
2022-12-01T19:26:29.938Z,989.5
2022-12-01T19:28:31.630Z,989.4
2022-12-01T19:30:32.929Z,989.4
2022-12-01T19:32:34.512Z,989.4
2022-12-01T19:34:35.993Z,989.5
2022-12-01T19:36:37.389Z,989.5
2022-12-01T19:38:38.879Z,989.4
2022-12-01T19:40:39.955Z,989.5
2022-12-01T19:42:41.540Z,989.3
2022-12-01T19:44:42.957Z,989.4
2022-12-01T19:46:44.328Z,989.3
2022-12-01T19:48:45.991Z,989.4
2022-12-01T19:50:47.997Z,989.5
2022-12-01T19:52:49.332Z,989.5
2022-12-01T19:54:51.225Z,989.4
2022-12-01T19:56:52.560Z,989.5
2022-12-01T19:58:53.880Z,989.5
2022-12-01T20:00:55.410Z,989.4
2022-12-01T20:02:57.288Z,989.5
2022-12-01T20:04:59.075Z,989.5
2022-12-01T20:07:00.628Z,989.4
2022-12-01T20:09:02.446Z,989.4
2022-12-01T20:11:04.381Z,989.4
2022-12-01T20:13:05.630Z,989.5
2022-12-01T20:15:06.593Z,989.5
2022-12-01T20:17:10.619Z,989.5
2022-12-01T20:19:09.938Z,989.5
2022-12-01T20:21:11.056Z,989.5
2022-12-01T20:23:12.948Z,989.5
2022-12-01T20:25:14.216Z,989.5
2022-12-01T20:27:16.227Z,989.5
2022-12-01T20:29:17.640Z,989.5
2022-12-01T20:31:19.063Z,989.5
2022-12-01T20:33:20.707Z,989.5
2022-12-01T20:35:22.163Z,989.5
2022-12-01T20:37:24.032Z,989.5
2022-12-01T20:39:25.724Z,989.6
2022-12-01T20:41:27.123Z,989.6
2022-12-01T20:43:28.316Z,989.5
2022-12-01T20:45:30.139Z,989.5
2022-12-01T20:47:31.828Z,989.6
2022-12-01T20:49:33.371Z,989.6
2022-12-01T20:51:34.609Z,989.6
2022-12-01T20:55:37.624Z,989.5
2022-12-01T20:57:38.857Z,989.6
2022-12-01T20:59:40.202Z,989.5
2022-12-01T21:01:42.234Z,989.6
2022-12-01T21:03:44.352Z,989.5
2022-12-01T21:05:45.770Z,989.5
2022-12-01T21:07:46.947Z,989.5
2022-12-01T21:09:48.831Z,989.4
2022-12-01T21:11:49.875Z,989.5
2022-12-01T21:13:51.804Z,989.4
2022-12-01T21:15:52.876Z,989.4
2022-12-01T21:17:54.515Z,989.3
2022-12-01T21:19:56.277Z,989.4
2022-12-01T21:21:57.421Z,989.3
2022-12-01T21:23:58.516Z,989.3
2022-12-01T21:25:59.668Z,989.4
2022-12-01T21:28:01.492Z,989.4
2022-12-01T21:30:02.935Z,989.4
2022-12-01T21:32:04.190Z,989.4
2022-12-01T21:34:05.445Z,989.4
2022-12-01T21:36:07.450Z,989.5
2022-12-01T21:38:09.417Z,989.3
2022-12-01T21:40:11.185Z,989.4
2022-12-01T21:42:12.333Z,989.4
2022-12-01T21:44:13.934Z,989.3
2022-12-01T21:46:15.582Z,989.3
2022-12-01T21:48:16.672Z,989.3
2022-12-01T21:50:18.119Z,989.3
2022-12-01T21:52:20.101Z,989.2
2022-12-01T21:54:21.458Z,989.3
2022-12-01T21:56:23.048Z,989.1
2022-12-01T21:58:24.681Z,989.2
2022-12-01T22:00:25.764Z,989.1
2022-12-01T22:04:28.945Z,989.2
2022-12-01T22:06:31.093Z,989.1
2022-12-01T22:08:32.453Z,989.2
2022-12-01T22:10:33.996Z,989.2
2022-12-01T22:12:35.045Z,989.2
2022-12-01T22:14:36.458Z,989.1
2022-12-01T22:16:38.259Z,989.2
2022-12-01T22:18:39.611Z,989.1
2022-12-01T22:20:40.829Z,989.1
2022-12-01T22:22:42.471Z,989.2
2022-12-01T22:23:26.361Z,989.2
2022-12-01T22:25:27.508Z,989.3
2022-12-01T22:27:29.349Z,989.3
2022-12-01T22:29:31.020Z,989.2
2022-12-01T22:31:32.833Z,989.2
2022-12-01T22:33:34.390Z,989.2
2022-12-01T22:35:36.103Z,989.1
2022-12-01T22:37:37.453Z,989.2
2022-12-01T22:39:39.063Z,989.2
2022-12-01T22:41:40.511Z,989.1
2022-12-01T22:43:41.744Z,989.1
2022-12-01T22:45:42.777Z,989.2
2022-12-01T22:47:44.010Z,989.1
2022-12-01T22:49:45.730Z,989.2
2022-12-01T22:51:47.480Z,989.2
2022-12-01T22:53:48.672Z,989.1
2022-12-01T22:57:51.427Z,989.1
2022-12-01T22:59:52.699Z,989.1
2022-12-01T23:01:53.897Z,989.2
2022-12-01T23:03:55.689Z,989.1
2022-12-01T23:05:57.151Z,989.1
2022-12-01T23:07:58.190Z,989
2022-12-01T23:09:59.522Z,989
2022-12-01T23:14:02.259Z,989.1
2022-12-01T23:16:03.851Z,989.1
2022-12-01T23:18:05.577Z,989.1
2022-12-01T23:20:07.442Z,989.1
2022-12-01T23:22:09.196Z,989.1
2022-12-01T23:24:10.852Z,989.1
2022-12-01T23:26:11.895Z,989.1
2022-12-01T23:30:15.746Z,989.2
2022-12-01T23:32:17.643Z,989.1
2022-12-01T23:34:19.562Z,989.1
2022-12-01T23:36:20.807Z,989.1
2022-12-01T23:38:22.635Z,989
2022-12-01T23:40:23.968Z,989
2022-12-01T23:42:25.635Z,989
2022-12-01T23:44:27.344Z,988.9
2022-12-01T23:46:28.975Z,988.9
2022-12-01T23:48:30.272Z,988.9
2022-12-01T23:50:31.972Z,989
2022-12-01T23:52:33.453Z,988.9
2022-12-01T23:54:34.897Z,988.9
2022-12-01T23:56:36.775Z,988.9
2022-12-01T23:58:38.737Z,988.9
